Terminal Aerodrome Forecast
Issued by NWS

Home | Current Version | Previous Version | Text Only | Print | Product List | Glossary Off
Versions: 1 2 3 4 5 6 7 8 9 10 11 12 13 14 15 16 17 18 19 20 21 22 23 24 25 26 27 28 29 30 31 32 33

000
FTUS43 KLOT 011136
TAFORD
TAF
KORD 011136Z 0112/0218 04012KT P6SM SCT012 BKN020
      TEMPO 0112/0114 BKN012
     FM011700 04012G18KT P6SM FEW030
     FM020100 03006KT P6SM SKC=

USA.gov is the U.S. government's official web portal to all federal, state and local government web resources and services.